createdAt,value
2023-05-14T00:00:18.290Z,22.8462
2023-05-14T00:01:20.010Z,25.2308
2023-05-14T00:02:21.636Z,29.6923
2023-05-14T00:03:23.361Z,24.9231
2023-05-14T00:04:24.895Z,27.4615
2023-05-14T00:05:26.563Z,25.2308
2023-05-14T00:06:28.180Z,22.0000
2023-05-14T00:07:30.273Z,26.0769
2023-05-14T00:08:31.460Z,26.3846
2023-05-14T00:09:33.158Z,27.6154
2023-05-14T00:10:34.766Z,25.1538
2023-05-14T00:11:36.445Z,29.2308
2023-05-14T00:12:38.070Z,30.4615
2023-05-14T00:13:39.701Z,29.2308
2023-05-14T00:14:41.366Z,25.5385
2023-05-14T00:15:43.017Z,23.2308
2023-05-14T00:16:44.629Z,16.6154
2023-05-14T00:17:46.380Z,26.4615
2023-05-14T00:18:47.916Z,31.2308
2023-05-14T00:19:49.571Z,26.3077
2023-05-14T00:20:51.728Z,26.1538
2023-05-14T00:21:52.832Z,24.0769
2023-05-14T00:22:54.539Z,25.0769
2023-05-14T00:23:56.159Z,25.6923
2023-05-14T00:24:57.822Z,23.2308
2023-05-14T00:25:59.426Z,24.6154
2023-05-14T00:27:01.079Z,26.1538
2023-05-14T00:28:02.744Z,30.7692
2023-05-14T00:29:04.331Z,24.4615
2023-05-14T00:30:06.113Z,23.6154
2023-05-14T00:31:07.697Z,28.7692
2023-05-14T00:32:09.258Z,25.0769
2023-05-14T00:33:10.998Z,22.6154
2023-05-14T00:34:12.568Z,24.0769
2023-05-14T00:35:14.251Z,25.1538
2023-05-14T00:36:15.847Z,27.3077
2023-05-14T00:37:17.536Z,24.0000
2023-05-14T00:38:19.278Z,17.0000
2023-05-14T00:39:20.754Z,23.6923
2023-05-14T00:40:22.871Z,23.8462
2023-05-14T00:41:24.065Z,23.0769
2023-05-14T00:42:25.724Z,26.2308
2023-05-14T00:43:27.386Z,27.0769
2023-05-14T00:44:29.089Z,27.0769
2023-05-14T00:45:30.637Z,22.3846
2023-05-14T00:46:32.324Z,22.9231
2023-05-14T00:47:34.030Z,28.5385
2023-05-14T00:48:35.623Z,23.4615
2023-05-14T00:49:37.248Z,23.5385
2023-05-14T00:50:38.970Z,19.4615
2023-05-14T00:51:40.524Z,21.7692
2023-05-14T00:52:42.255Z,23.9231
2023-05-14T00:53:43.859Z,25.3846
2023-05-14T00:54:45.556Z,23.8462
2023-05-14T00:55:47.027Z,27.6923
2023-05-14T00:56:48.754Z,23.6923
2023-05-14T00:57:50.317Z,24.5385
2023-05-14T00:58:52.996Z,20.9231
2023-05-14T00:59:53.753Z,21.7692
2023-05-14T01:00:55.291Z,21.8462
2023-05-14T01:01:56.922Z,22.4615
2023-05-14T01:02:58.701Z,23.3846
2023-05-14T01:04:00.290Z,21.3846
2023-05-14T01:05:02.319Z,22.4615
2023-05-14T01:06:03.495Z,25.4615
2023-05-14T01:07:05.139Z,24.9231
2023-05-14T01:08:06.770Z,23.3846
2023-05-14T01:09:08.431Z,25.1538
2023-05-14T01:10:11.044Z,22.8462
2023-05-14T01:11:11.753Z,20.3846
2023-05-14T01:12:13.355Z,30.5385
2023-05-14T01:13:14.968Z,25.1538
2023-05-14T01:14:17.108Z,26.7692
2023-05-14T01:15:18.613Z,25.7692
2023-05-14T01:16:20.774Z,24.8462
2023-05-14T01:17:21.534Z,23.0000
2023-05-14T01:18:23.218Z,25.6923
2023-05-14T01:19:24.915Z,23.0000
2023-05-14T01:20:26.639Z,26.1538
2023-05-14T01:21:28.201Z,18.9231
2023-05-14T01:22:29.919Z,21.7692
2023-05-14T01:23:31.398Z,27.6154
2023-05-14T01:24:33.085Z,21.3077
2023-05-14T01:25:34.789Z,25.3077
2023-05-14T01:26:36.472Z,23.6923
2023-05-14T01:27:38.704Z,22.5385
2023-05-14T01:28:39.794Z,22.3846
2023-05-14T01:29:41.317Z,23.6923
2023-05-14T01:30:43.355Z,24.9231
2023-05-14T01:31:44.651Z,23.1538
2023-05-14T01:32:46.322Z,22.0769
2023-05-14T01:33:47.889Z,23.3077
2023-05-14T01:34:49.542Z,23.0769
2023-05-14T01:35:51.251Z,20.8462
2023-05-14T01:36:53.263Z,23.3846
2023-05-14T01:37:54.502Z,22.9231
2023-05-14T01:38:56.109Z,20.6154
2023-05-14T01:39:57.798Z,23.3077
2023-05-14T01:40:59.426Z,22.9231
2023-05-14T01:42:01.318Z,19.0000
2023-05-14T01:43:02.759Z,19.7692
2023-05-14T01:44:04.485Z,20.0000
2023-05-14T01:45:05.973Z,18.7692
2023-05-14T01:46:07.669Z,21.9231
2023-05-14T01:47:09.800Z,22.0000
2023-05-14T01:48:11.140Z,19.6923
2023-05-14T01:49:12.542Z,21.8462
2023-05-14T01:50:14.241Z,20.4615
2023-05-14T01:51:15.861Z,21.0769
2023-05-14T01:52:17.814Z,20.6923
2023-05-14T01:53:19.216Z,18.3077
2023-05-14T01:54:20.824Z,19.6923
2023-05-14T01:55:22.451Z,20.1538
2023-05-14T01:56:24.119Z,21.3077
2023-05-14T01:57:25.796Z,16.6154
2023-05-14T01:58:27.386Z,18.7692
2023-05-14T01:59:29.104Z,19.1538
2023-05-14T02:00:30.613Z,22.8462
2023-05-14T02:01:33.325Z,18.8462
2023-05-14T02:02:33.969Z,18.9231
2023-05-14T02:03:35.576Z,21.1538
2023-05-14T02:04:37.203Z,17.5385
2023-05-14T02:05:38.841Z,18.3846
2023-05-14T02:06:40.710Z,20.1538
2023-05-14T02:07:42.195Z,13.8462
2023-05-14T02:08:43.752Z,16.2308
2023-05-14T02:09:45.457Z,16.8462
2023-05-14T02:10:47.048Z,17.8462
2023-05-14T02:11:48.795Z,16.4615
2023-05-14T02:12:50.386Z,17.4615
2023-05-14T02:13:52.045Z,17.3077
2023-05-14T02:14:53.639Z,16.6923
2023-05-14T02:15:55.350Z,15.7692
2023-05-14T02:16:56.949Z,17.6923
2023-05-14T02:17:58.836Z,16.2308
2023-05-14T02:19:01.281Z,15.8462
2023-05-14T02:20:01.878Z,16.7692
2023-05-14T02:21:03.549Z,16.6923
2023-05-14T02:22:05.164Z,15.2308
2023-05-14T02:23:07.761Z,16.7692
2023-05-14T02:24:08.498Z,15.0000
2023-05-14T02:25:10.080Z,19.7692
2023-05-14T02:26:11.708Z,13.8462
2023-05-14T02:27:13.395Z,14.3077
2023-05-14T02:28:15.747Z,16.0000
2023-05-14T02:29:16.678Z,15.3077
2023-05-14T02:30:18.296Z,13.6154
2023-05-14T02:31:20.068Z,17.8462
2023-05-14T02:32:21.603Z,16.0000
2023-05-14T02:33:23.375Z,17.0769
2023-05-14T02:34:25.051Z,14.4615
2023-05-14T02:35:26.542Z,14.9231
2023-05-14T02:36:28.245Z,18.3077
2023-05-14T02:37:29.824Z,14.1538
2023-05-14T02:38:31.491Z,14.2308
2023-05-14T02:39:33.077Z,14.2308
2023-05-14T02:40:34.773Z,12.3077
2023-05-14T02:41:36.346Z,16.6923
2023-05-14T02:42:38.221Z,13.7692
2023-05-14T02:43:39.641Z,15.0769
2023-05-14T02:44:41.334Z,12.3846
2023-05-14T02:45:42.968Z,14.8462
2023-05-14T02:46:44.623Z,13.6923
2023-05-14T02:47:46.384Z,12.9231
2023-05-14T02:48:48.739Z,8.3077
2023-05-14T02:49:49.526Z,11.9231
2023-05-14T02:50:51.222Z,13.3846
2023-05-14T02:51:52.799Z,15.4615
2023-05-14T02:52:54.703Z,11.3077
2023-05-14T02:53:57.196Z,12.0000
2023-05-14T02:54:58.866Z,15.3077
2023-05-14T02:55:59.622Z,21.5385
2023-05-14T02:57:01.188Z,22.5385
2023-05-14T02:58:02.863Z,33.2308
2023-05-14T02:59:04.579Z,30.3077
2023-05-14T03:00:06.151Z,28.9231
2023-05-14T03:01:07.867Z,33.0769
2023-05-14T03:02:09.407Z,30.5385
2023-05-14T03:03:11.118Z,29.3077
2023-05-14T03:04:12.688Z,30.5385
2023-05-14T03:05:14.314Z,31.4615
2023-05-14T03:06:15.995Z,26.1538
2023-05-14T03:07:17.643Z,28.0769
2023-05-14T03:08:19.329Z,28.3077
2023-05-14T03:09:20.900Z,24.3846
2023-05-14T03:10:22.686Z,29.1538
2023-05-14T03:11:24.340Z,27.6154
2023-05-14T03:12:25.821Z,25.3077
2023-05-14T03:13:27.507Z,24.0769
2023-05-14T03:14:29.146Z,27.3077
2023-05-14T03:15:30.791Z,25.9231
2023-05-14T03:16:33.379Z,23.3846
2023-05-14T03:17:34.088Z,26.3846
2023-05-14T03:18:35.836Z,27.3846
2023-05-14T03:19:37.370Z,28.7692
2023-05-14T03:20:38.932Z,22.6154
2023-05-14T03:21:40.630Z,22.3077
2023-05-14T03:22:42.235Z,24.0000
2023-05-14T03:23:43.969Z,20.8462
2023-05-14T03:24:45.538Z,20.3077
2023-05-14T03:25:47.562Z,30.0000
2023-05-14T03:26:49.208Z,24.9231
2023-05-14T03:27:50.593Z,19.6923
2023-05-14T03:28:52.100Z,18.0000
2023-05-14T03:29:53.746Z,19.1538
2023-05-14T03:30:55.745Z,23.1538
2023-05-14T03:31:57.354Z,24.9231
2023-05-14T03:32:58.990Z,21.1538
2023-05-14T03:34:00.409Z,21.7692
2023-05-14T03:35:02.017Z,22.2308
2023-05-14T03:36:03.686Z,20.6923
2023-05-14T03:37:05.266Z,18.2308
2023-05-14T03:38:07.008Z,23.5385
2023-05-14T03:39:08.648Z,20.3077
2023-05-14T03:40:10.267Z,23.9231
2023-05-14T03:41:11.864Z,23.6923
2023-05-14T03:42:13.568Z,21.7692
2023-05-14T03:43:15.160Z,24.5385
2023-05-14T03:44:16.854Z,24.0769
2023-05-14T03:45:18.558Z,24.5385
2023-05-14T03:46:20.129Z,21.8462
2023-05-14T03:47:22.064Z,23.2308
2023-05-14T03:48:23.841Z,23.6923
2023-05-14T03:49:25.067Z,20.9231
2023-05-14T03:50:26.714Z,21.9231
2023-05-14T03:51:28.304Z,24.6154
2023-05-14T03:52:30.057Z,25.2308
2023-05-14T03:53:31.659Z,27.7692
2023-05-14T03:54:33.271Z,24.0000
2023-05-14T03:55:34.862Z,22.0000
2023-05-14T03:56:36.612Z,22.2308
2023-05-14T03:57:38.198Z,25.2308
2023-05-14T03:58:39.866Z,25.0769
2023-05-14T03:59:41.465Z,23.1538
2023-05-14T04:00:43.094Z,28.0000
2023-05-14T04:01:44.923Z,30.0000
2023-05-14T04:02:46.562Z,28.9231
2023-05-14T04:03:48.580Z,25.6154
2023-05-14T04:04:49.814Z,27.6154
2023-05-14T04:05:51.878Z,30.0769
2023-05-14T04:06:53.922Z,30.3077
2023-05-14T04:07:54.593Z,30.4615
2023-05-14T04:08:56.361Z,31.5385
2023-05-14T04:09:57.921Z,30.5385
2023-05-14T04:10:59.524Z,27.9231
2023-05-14T04:12:01.186Z,34.2308
2023-05-14T04:13:02.837Z,31.1538
2023-05-14T04:14:05.367Z,27.2308
2023-05-14T04:15:06.149Z,29.8462
2023-05-14T04:16:07.835Z,31.6154
2023-05-14T04:17:09.447Z,32.4615
2023-05-14T04:18:11.029Z,33.8462
2023-05-14T04:19:12.787Z,29.8462
2023-05-14T04:20:14.348Z,31.6923
2023-05-14T04:21:16.039Z,32.6923
2023-05-14T04:22:17.612Z,30.6154
2023-05-14T04:23:19.233Z,31.7692
2023-05-14T04:24:20.908Z,33.9231
2023-05-14T04:25:22.664Z,32.8462
2023-05-14T04:26:24.165Z,34.5385
2023-05-14T04:27:25.892Z,33.6154
2023-05-14T04:28:27.516Z,32.1538
2023-05-14T04:29:29.176Z,34.0769
2023-05-14T04:30:30.889Z,35.0769
2023-05-14T04:31:33.440Z,34.6923
2023-05-14T04:32:34.088Z,39.9231
2023-05-14T04:33:35.722Z,38.4615
2023-05-14T04:34:37.342Z,38.1538
2023-05-14T04:35:39.023Z,34.4615
2023-05-14T04:36:40.639Z,35.3077
2023-05-14T04:37:42.368Z,30.9231
2023-05-14T04:38:43.994Z,35.6923
2023-05-14T04:39:45.586Z,36.9231
2023-05-14T04:40:47.227Z,38.0000
2023-05-14T04:41:48.876Z,38.0769
2023-05-14T04:42:50.580Z,37.3077
2023-05-14T04:43:52.140Z,37.3077
2023-05-14T04:44:53.811Z,40.3077
2023-05-14T04:45:55.432Z,41.8462
2023-05-14T04:46:57.136Z,37.6154
2023-05-14T04:47:58.768Z,34.2308
2023-05-14T04:49:00.361Z,44.8462
2023-05-14T04:50:02.137Z,42.3077
2023-05-14T04:51:05.634Z,39.8462
2023-05-14T04:52:05.318Z,41.3077
2023-05-14T04:53:06.985Z,43.2308
2023-05-14T04:54:08.597Z,48.1538
2023-05-14T04:55:10.287Z,44.7692
2023-05-14T04:56:11.965Z,50.0769
2023-05-14T04:57:13.597Z,51.1538
2023-05-14T04:58:15.174Z,54.3846
2023-05-14T04:59:16.904Z,56.6923
2023-05-14T05:00:19.394Z,58.1538
2023-05-14T05:01:20.177Z,54.2308
2023-05-14T05:02:21.798Z,53.3077
2023-05-14T05:03:23.408Z,55.4615
2023-05-14T05:04:25.082Z,60.5385
2023-05-14T05:05:26.698Z,64.5385
2023-05-14T05:06:28.317Z,65.8462
2023-05-14T05:07:30.073Z,63.0769
2023-05-14T05:08:31.700Z,61.0769
2023-05-14T05:09:33.275Z,64.6923
2023-05-14T05:10:34.936Z,69.3846
2023-05-14T05:11:36.619Z,68.8462
2023-05-14T05:12:39.180Z,67.4615
2023-05-14T05:13:39.894Z,65.1538
2023-05-14T05:14:41.436Z,64.8462
2023-05-14T05:15:43.535Z,69.3077
2023-05-14T05:16:45.655Z,73.9231
2023-05-14T05:17:46.436Z,74.2308
2023-05-14T05:18:48.060Z,71.7692
2023-05-14T05:19:49.660Z,75.2308
2023-05-14T05:20:51.279Z,75.0000
2023-05-14T05:21:52.927Z,74.4615
2023-05-14T05:22:54.615Z,79.5385
2023-05-14T05:23:56.272Z,79.0769
2023-05-14T05:24:57.845Z,79.6923
2023-05-14T05:25:59.549Z,82.7692
2023-05-14T05:27:01.249Z,79.3077
2023-05-14T05:28:02.839Z,84.0769
2023-05-14T05:29:04.465Z,81.6923
2023-05-14T05:30:06.233Z,81.6154
2023-05-14T05:31:07.857Z,76.8462
2023-05-14T05:32:09.436Z,74.2308
2023-05-14T05:33:11.266Z,85.1538
2023-05-14T05:34:12.726Z,88.0769
2023-05-14T05:35:14.501Z,91.0000
2023-05-14T05:36:16.077Z,88.3077
2023-05-14T05:37:17.784Z,84.1538
2023-05-14T05:38:19.424Z,87.7692
2023-05-14T05:39:21.067Z,92.0000
2023-05-14T05:40:22.770Z,90.9231
2023-05-14T05:41:24.316Z,87.9231
2023-05-14T05:42:25.913Z,87.3077
2023-05-14T05:43:27.582Z,88.1538
2023-05-14T05:44:29.263Z,96.1538
2023-05-14T05:45:30.867Z,93.6154
2023-05-14T05:46:32.603Z,95.9231
2023-05-14T05:47:34.143Z,93.5385
2023-05-14T05:48:35.763Z,91.4615
2023-05-14T05:49:37.455Z,92.3077
2023-05-14T05:50:39.078Z,96.6923
2023-05-14T05:51:40.714Z,100.1538
2023-05-14T05:52:42.314Z,98.2308
2023-05-14T05:53:44.903Z,95.0769
2023-05-14T05:54:45.671Z,95.8462
2023-05-14T05:55:47.317Z,99.5385
2023-05-14T05:56:48.888Z,102.1538
2023-05-14T05:57:50.602Z,105.7692
2023-05-14T05:58:52.949Z,100.1538
2023-05-14T05:59:54.911Z,97.8462
2023-05-14T06:00:55.468Z,96.9231
2023-05-14T06:01:57.194Z,101.1538
2023-05-14T06:02:58.822Z,108.0769
2023-05-14T06:04:00.512Z,103.8462
2023-05-14T06:05:02.214Z,98.7692
2023-05-14T06:06:03.734Z,98.5385
2023-05-14T06:07:05.651Z,100.0000
2023-05-14T06:08:07.028Z,104.3077
2023-05-14T06:09:08.686Z,106.9231
2023-05-14T06:10:10.358Z,106.6154
2023-05-14T06:11:11.894Z,100.3077
2023-05-14T06:12:13.624Z,100.0769
2023-05-14T06:13:15.229Z,105.6923
2023-05-14T06:14:16.937Z,103.7692
2023-05-14T06:15:18.917Z,113.0769
2023-05-14T06:16:20.199Z,108.0769
2023-05-14T06:17:21.811Z,102.7692
2023-05-14T06:18:23.485Z,105.9231
2023-05-14T06:19:25.145Z,107.0000
2023-05-14T06:20:26.906Z,107.3846
2023-05-14T06:21:28.408Z,111.3846
2023-05-14T06:22:30.041Z,114.3077
2023-05-14T06:23:31.641Z,108.1538
2023-05-14T06:24:33.448Z,104.1538
2023-05-14T06:25:34.976Z,110.2308
2023-05-14T06:26:36.632Z,115.4615
2023-05-14T06:27:38.246Z,113.9231
2023-05-14T06:28:39.992Z,114.7692
2023-05-14T06:29:41.563Z,112.3846
2023-05-14T06:30:43.283Z,109.9231
2023-05-14T06:31:44.898Z,114.0769
2023-05-14T06:32:46.593Z,116.3077
2023-05-14T06:33:48.112Z,119.3846
2023-05-14T06:34:49.883Z,115.5385
2023-05-14T06:35:51.446Z,111.5385
2023-05-14T06:36:53.103Z,117.5385
2023-05-14T06:37:54.803Z,114.3846
2023-05-14T06:38:56.368Z,121.8462
2023-05-14T06:39:58.172Z,122.7692
2023-05-14T06:40:59.707Z,123.1538
2023-05-14T06:42:01.367Z,114.6154
2023-05-14T06:43:02.987Z,118.3077
2023-05-14T06:44:04.603Z,121.6154
2023-05-14T06:45:06.256Z,121.6923
2023-05-14T06:46:08.426Z,125.2308
2023-05-14T06:47:09.615Z,122.7692
2023-05-14T06:48:11.235Z,120.3077
2023-05-14T06:49:12.852Z,124.6923
2023-05-14T06:50:14.561Z,127.4615
2023-05-14T06:51:16.901Z,129.8462
2023-05-14T06:52:17.766Z,128.1538
2023-05-14T06:53:19.419Z,123.2308
2023-05-14T06:54:21.068Z,121.4615
2023-05-14T06:55:22.700Z,123.7692
2023-05-14T06:56:24.405Z,127.3846
2023-05-14T06:57:25.943Z,123.5385
2023-05-14T06:58:27.627Z,125.0000
2023-05-14T06:59:29.216Z,124.5385
2023-05-14T07:00:30.980Z,124.2308
2023-05-14T07:01:32.532Z,121.2308
2023-05-14T07:02:34.158Z,128.2308
2023-05-14T07:03:36.301Z,132.6154
2023-05-14T07:04:37.469Z,130.7692
2023-05-14T07:05:39.048Z,130.9231
2023-05-14T07:06:40.801Z,128.5385
2023-05-14T07:07:42.356Z,128.8462
2023-05-14T07:08:44.051Z,127.1538
2023-05-14T07:09:45.630Z,138.7692
2023-05-14T07:10:47.385Z,135.9231
2023-05-14T07:11:49.480Z,130.4615
2023-05-14T07:12:50.616Z,134.3846
2023-05-14T07:13:52.266Z,133.0000
2023-05-14T07:14:53.933Z,136.6154
2023-05-14T07:15:55.533Z,139.6923
2023-05-14T07:16:57.245Z,137.2308
2023-05-14T07:17:58.859Z,134.0769
2023-05-14T07:19:00.558Z,134.2308
2023-05-14T07:20:02.134Z,140.0769
2023-05-14T07:21:03.801Z,145.3846
2023-05-14T07:22:05.414Z,144.0769
2023-05-14T07:23:07.050Z,133.7692
2023-05-14T07:24:08.716Z,137.5385
2023-05-14T07:25:10.344Z,139.3077
2023-05-14T07:26:12.015Z,142.5385
2023-05-14T07:27:13.615Z,146.1538
2023-05-14T07:28:15.254Z,141.9231
2023-05-14T07:29:16.983Z,138.6923
2023-05-14T07:30:18.533Z,138.0000
2023-05-14T07:31:20.309Z,138.0769
2023-05-14T07:32:21.852Z,144.2308
2023-05-14T07:33:23.509Z,147.3077
2023-05-14T07:34:25.148Z,144.5385
2023-05-14T07:35:26.747Z,141.5385
2023-05-14T07:36:28.426Z,139.5385
2023-05-14T07:37:30.109Z,140.6923
2023-05-14T07:38:31.720Z,150.3077
2023-05-14T07:39:33.345Z,147.0769
2023-05-14T07:40:34.980Z,143.0000
2023-05-14T07:41:37.333Z,145.0000
2023-05-14T07:42:38.263Z,141.0000
2023-05-14T07:43:39.949Z,143.9231
2023-05-14T07:44:41.616Z,145.0000
2023-05-14T07:45:43.214Z,150.6154
2023-05-14T07:46:44.928Z,144.7692
2023-05-14T07:47:46.534Z,145.8462
2023-05-14T07:48:48.126Z,144.9231
2023-05-14T07:49:49.778Z,144.0769
2023-05-14T07:50:51.444Z,150.3846
2023-05-14T07:51:53.843Z,144.9231
2023-05-14T07:52:54.813Z,147.9231
2023-05-14T07:53:56.512Z,143.9231
2023-05-14T07:54:58.279Z,143.9231
2023-05-14T07:55:59.770Z,151.0769
2023-05-14T07:57:01.511Z,156.7692
2023-05-14T07:58:03.574Z,160.1538
2023-05-14T07:59:04.751Z,158.3077
2023-05-14T08:00:06.545Z,156.6923
2023-05-14T08:01:09.078Z,154.2308
2023-05-14T08:02:09.711Z,157.1538
2023-05-14T08:03:11.452Z,159.8462
2023-05-14T08:04:13.159Z,158.7692
2023-05-14T08:05:14.608Z,162.8462
2023-05-14T08:06:16.273Z,161.2308
2023-05-14T08:07:17.906Z,160.2308
2023-05-14T08:08:19.516Z,165.3846
2023-05-14T08:09:21.210Z,167.0769
2023-05-14T08:10:24.025Z,168.3846
2023-05-14T08:11:24.420Z,167.0000
2023-05-14T08:12:27.094Z,159.3077
2023-05-14T08:13:27.722Z,155.8462
2023-05-14T08:14:29.632Z,161.1538
2023-05-14T08:15:31.023Z,161.9231
2023-05-14T08:16:32.785Z,153.3846
2023-05-14T08:17:34.363Z,152.9231
2023-05-14T08:18:36.040Z,151.6923
2023-05-14T08:19:38.561Z,154.0769
2023-05-14T08:20:39.294Z,162.7692
2023-05-14T08:21:41.052Z,162.6923
2023-05-14T08:22:42.685Z,154.5385
2023-05-14T08:23:44.552Z,146.0769
2023-05-14T08:24:45.926Z,148.8462
2023-05-14T08:25:47.519Z,156.4615
2023-05-14T08:26:49.264Z,166.0000
2023-05-14T08:27:50.823Z,155.4615
2023-05-14T08:28:52.488Z,150.5385
2023-05-14T08:29:54.056Z,147.0000
2023-05-14T08:30:55.759Z,148.0769
2023-05-14T08:31:57.610Z,155.0769
2023-05-14T08:32:59.716Z,161.8462
2023-05-14T08:34:00.687Z,152.5385
2023-05-14T08:35:02.278Z,148.4615
2023-05-14T08:36:03.996Z,147.6154
2023-05-14T08:37:05.640Z,152.6154
2023-05-14T08:38:08.266Z,158.3077
2023-05-14T08:39:09.029Z,155.0000
2023-05-14T08:40:10.523Z,151.2308
2023-05-14T08:41:12.317Z,146.9231
2023-05-14T08:42:13.858Z,147.0000
2023-05-14T08:43:15.580Z,153.3846
2023-05-14T08:44:17.155Z,159.5385
2023-05-14T08:45:18.864Z,155.8462
2023-05-14T08:46:20.422Z,147.6923
2023-05-14T08:47:22.123Z,141.7692
2023-05-14T08:48:23.774Z,152.6154
2023-05-14T08:49:25.366Z,160.0000
2023-05-14T08:50:27.455Z,161.9231
2023-05-14T08:51:28.636Z,143.6154
2023-05-14T08:52:30.283Z,134.6923
2023-05-14T08:53:31.953Z,138.4615
2023-05-14T08:54:33.619Z,145.3077
2023-05-14T08:55:35.213Z,154.6923
2023-05-14T08:56:36.830Z,155.6154
2023-05-14T08:57:38.542Z,136.4615
2023-05-14T08:58:40.200Z,131.0769
2023-05-14T08:59:41.894Z,138.0000
2023-05-14T09:00:43.459Z,153.4615
2023-05-14T09:01:45.146Z,160.7692
2023-05-14T09:02:46.805Z,151.0769
2023-05-14T09:03:48.351Z,135.5385
2023-05-14T09:04:49.979Z,135.7692
2023-05-14T09:05:51.807Z,143.1538
2023-05-14T09:06:53.305Z,152.6154
2023-05-14T09:07:55.009Z,161.6154
2023-05-14T09:08:56.586Z,149.2308
2023-05-14T09:09:58.322Z,135.2308
2023-05-14T09:11:00.868Z,134.2308
2023-05-14T09:12:01.583Z,145.4615
2023-05-14T09:13:03.215Z,155.7692
2023-05-14T09:14:04.775Z,162.0000
2023-05-14T09:15:07.250Z,144.7692
2023-05-14T09:16:08.156Z,132.8462
2023-05-14T09:17:09.828Z,131.3846
2023-05-14T09:18:11.372Z,147.2308
2023-05-14T09:19:13.193Z,151.3077
2023-05-14T09:20:14.693Z,159.3077
2023-05-14T09:21:16.491Z,142.3077
2023-05-14T09:22:17.985Z,131.3077
2023-05-14T09:23:19.710Z,132.6923
2023-05-14T09:24:21.381Z,141.1538
2023-05-14T09:25:24.034Z,152.6154
2023-05-14T09:26:24.520Z,161.0769
2023-05-14T09:27:27.244Z,138.6923
2023-05-14T09:28:27.844Z,134.1538
2023-05-14T09:29:29.494Z,138.1538
2023-05-14T09:30:32.522Z,148.0000
2023-05-14T09:31:32.746Z,153.2308
2023-05-14T09:32:35.552Z,152.7692
2023-05-14T09:33:36.116Z,133.3077
2023-05-14T09:34:38.108Z,126.6154
2023-05-14T09:35:39.531Z,128.8462
2023-05-14T09:36:41.165Z,138.0000
2023-05-14T09:37:42.800Z,149.0000
2023-05-14T09:38:44.441Z,157.5385
2023-05-14T09:39:45.982Z,132.7692
2023-05-14T09:40:47.750Z,124.6154
2023-05-14T09:41:49.327Z,127.9231
2023-05-14T09:42:50.982Z,138.0000
2023-05-14T09:43:52.634Z,143.9231
2023-05-14T09:44:54.261Z,151.6154
2023-05-14T09:45:55.960Z,131.8462
2023-05-14T09:46:57.614Z,115.4615
2023-05-14T09:48:00.329Z,126.2308
2023-05-14T09:49:00.806Z,139.3077
2023-05-14T09:50:03.425Z,148.0000
2023-05-14T09:51:04.738Z,157.2308
2023-05-14T09:52:05.728Z,133.6923
2023-05-14T09:53:07.472Z,122.3846
2023-05-14T09:54:09.105Z,123.0000
2023-05-14T09:55:10.675Z,138.5385
2023-05-14T09:56:12.485Z,143.8462
2023-05-14T09:57:14.055Z,148.0000
2023-05-14T09:58:15.667Z,127.2308
2023-05-14T09:59:17.593Z,125.8462
2023-05-14T10:00:18.986Z,129.7692
2023-05-14T10:01:21.704Z,143.3846
2023-05-14T10:02:22.328Z,149.4615
2023-05-14T10:03:23.929Z,147.9231
2023-05-14T10:04:25.511Z,138.2308
2023-05-14T10:05:27.209Z,124.5385
2023-05-14T10:06:28.820Z,140.3846
2023-05-14T10:07:30.449Z,151.5385
2023-05-14T10:08:32.639Z,155.8462
2023-05-14T10:09:33.784Z,146.2308
2023-05-14T10:10:35.385Z,131.7692
2023-05-14T10:11:38.101Z,131.2308
2023-05-14T10:12:38.689Z,144.8462
2023-05-14T10:13:40.282Z,155.0769
2023-05-14T10:14:42.026Z,160.3846
2023-05-14T10:15:43.612Z,146.3846
2023-05-14T10:16:45.274Z,125.6923
2023-05-14T10:17:47.085Z,124.6154
2023-05-14T10:18:48.661Z,140.0769
2023-05-14T10:19:50.223Z,152.0769
2023-05-14T10:20:51.799Z,161.4615
2023-05-14T10:21:53.521Z,142.7692
2023-05-14T10:22:55.138Z,127.2308
2023-05-14T10:23:56.973Z,134.5385
2023-05-14T10:24:58.540Z,144.0000
2023-05-14T10:26:00.201Z,152.5385
2023-05-14T10:27:01.774Z,164.5385
2023-05-14T10:28:03.385Z,144.6154
2023-05-14T10:29:05.026Z,126.1538
2023-05-14T10:30:06.656Z,129.8462
2023-05-14T10:31:08.264Z,145.3077
2023-05-14T10:32:10.062Z,152.0769
2023-05-14T10:33:12.619Z,164.4615
2023-05-14T10:34:13.193Z,147.7692
2023-05-14T10:35:15.863Z,130.8462
2023-05-14T10:36:16.484Z,139.6154
2023-05-14T10:37:18.134Z,149.2308
2023-05-14T10:38:19.712Z,163.6154
2023-05-14T10:39:21.444Z,162.8462
2023-05-14T10:40:23.133Z,146.3846
2023-05-14T10:41:24.762Z,130.7692
2023-05-14T10:42:26.315Z,138.0769
2023-05-14T10:43:28.000Z,156.2308
2023-05-14T10:44:29.632Z,163.1538
2023-05-14T10:45:31.334Z,163.8462
2023-05-14T10:46:32.936Z,137.7692
2023-05-14T10:47:34.605Z,132.7692
2023-05-14T10:48:36.196Z,143.2308
2023-05-14T10:49:43.349Z,155.0769
2023-05-14T10:50:39.516Z,168.0769
2023-05-14T10:51:41.253Z,158.5385
2023-05-14T10:52:42.780Z,136.7692
2023-05-14T10:53:44.494Z,136.9231
2023-05-14T10:54:46.080Z,146.0000
2023-05-14T10:55:47.732Z,154.4615
2023-05-14T10:56:49.407Z,168.1538
2023-05-14T10:57:51.017Z,149.5385
2023-05-14T10:58:52.664Z,135.3846
2023-05-14T10:59:55.171Z,137.3077
2023-05-14T11:00:56.025Z,144.6923
2023-05-14T11:01:57.749Z,158.0769
2023-05-14T11:02:59.368Z,169.3846
2023-05-14T11:04:01.017Z,147.0769
2023-05-14T11:05:04.440Z,129.9231
2023-05-14T11:06:04.235Z,132.5385
2023-05-14T11:07:05.905Z,148.5385
2023-05-14T11:08:07.574Z,160.2308
2023-05-14T11:09:09.131Z,161.2308
2023-05-14T11:10:10.859Z,152.3846
2023-05-14T11:11:12.508Z,137.9231
2023-05-14T11:12:14.065Z,142.7692
2023-05-14T11:13:15.681Z,150.9231
2023-05-14T11:14:17.434Z,154.3077
2023-05-14T11:15:19.029Z,159.6923
2023-05-14T11:16:23.760Z,152.0769
2023-05-14T11:17:22.302Z,132.5385
2023-05-14T11:18:23.958Z,140.2308
2023-05-14T11:19:25.627Z,153.9231
2023-05-14T11:20:27.346Z,160.6154
2023-05-14T11:21:29.007Z,165.0769
2023-05-14T11:22:30.552Z,156.3846
2023-05-14T11:23:32.168Z,136.6923
2023-05-14T11:24:33.832Z,136.0769
2023-05-14T11:25:35.547Z,152.0769
2023-05-14T11:26:38.122Z,160.5385
2023-05-14T11:27:38.762Z,164.5385
2023-05-14T11:28:40.562Z,155.5385
2023-05-14T11:29:42.090Z,144.6154
2023-05-14T11:30:43.712Z,138.4615
2023-05-14T11:31:45.475Z,150.9231
2023-05-14T11:32:47.001Z,157.6923
2023-05-14T11:33:48.641Z,156.8462
2023-05-14T11:34:50.573Z,157.3846
2023-05-14T11:35:51.964Z,144.2308
2023-05-14T11:36:53.547Z,143.0000
2023-05-14T11:37:55.204Z,148.6923
2023-05-14T11:38:56.824Z,160.4615
2023-05-14T11:39:58.558Z,171.3077
2023-05-14T11:41:00.160Z,162.5385
2023-05-14T11:42:01.739Z,150.1538
2023-05-14T11:43:03.425Z,146.2308
2023-05-14T11:44:05.964Z,148.9231
2023-05-14T11:45:06.762Z,159.8462
2023-05-14T11:46:08.436Z,168.2308
2023-05-14T11:47:10.059Z,164.1538
2023-05-14T11:48:11.649Z,153.5385
2023-05-14T11:49:13.308Z,151.0769
2023-05-14T11:50:14.906Z,151.7692
2023-05-14T11:51:16.717Z,160.1538
2023-05-14T11:52:18.209Z,166.0000
2023-05-14T11:53:19.873Z,164.2308
2023-05-14T11:54:21.593Z,161.0000
2023-05-14T11:55:23.207Z,151.5385
2023-05-14T11:56:24.820Z,156.4615
2023-05-14T11:57:26.503Z,167.5385
2023-05-14T11:58:28.048Z,172.8462
2023-05-14T11:59:29.663Z,164.8462
2023-05-14T12:00:31.317Z,151.9231
2023-05-14T12:01:33.016Z,149.4615
2023-05-14T12:02:34.712Z,160.1538
2023-05-14T12:03:36.386Z,168.0000
2023-05-14T12:04:37.939Z,166.4615
2023-05-14T12:05:40.039Z,167.3846
2023-05-14T12:06:41.189Z,158.4615
2023-05-14T12:07:42.820Z,155.2308
2023-05-14T12:08:45.483Z,158.0000
2023-05-14T12:09:46.077Z,169.4615
2023-05-14T12:10:47.753Z,165.4615
2023-05-14T12:11:49.412Z,164.3077
2023-05-14T12:12:51.064Z,152.6154
2023-05-14T12:13:52.643Z,148.1538